createdAt,value
2019-04-16T00:00:22.470Z,8.79
2019-04-16T00:02:52.857Z,8.71
2019-04-16T00:05:28.957Z,8.71
2019-04-16T00:07:59.293Z,8.76
2019-04-16T00:10:29.932Z,8.63
2019-04-16T00:13:12.206Z,8.60
2019-04-16T00:15:42.018Z,8.55
2019-04-16T00:18:11.697Z,8.58
2019-04-16T00:20:58.376Z,8.62
2019-04-16T00:23:28.768Z,8.55
2019-04-16T00:25:57.773Z,8.55
2019-04-16T00:28:30.529Z,8.44
2019-04-16T00:30:57.057Z,8.39
2019-04-16T00:33:25.832Z,8.34
2019-04-16T00:35:54.761Z,8.43
2019-04-16T00:38:23.796Z,8.44
2019-04-16T00:40:52.690Z,8.27
2019-04-16T00:43:21.541Z,8.16
2019-04-16T00:45:50.463Z,8.04
2019-04-16T00:48:19.236Z,8.16
2019-04-16T00:50:47.976Z,8.07
2019-04-16T00:53:16.777Z,7.96
2019-04-16T00:55:45.843Z,8.04
2019-04-16T00:58:19.522Z,7.91
2019-04-16T01:00:45.312Z,7.91
2019-04-16T01:03:14.092Z,7.86
2019-04-16T01:05:42.934Z,7.84
2019-04-16T01:08:11.683Z,7.84
2019-04-16T01:10:40.463Z,7.92
2019-04-16T01:13:09.277Z,7.82
2019-04-16T01:15:38.008Z,7.79
2019-04-16T01:18:07.835Z,7.70
2019-04-16T01:20:37.310Z,7.65
2019-04-16T01:23:06.197Z,7.61
2019-04-16T01:25:34.942Z,7.53
2019-04-16T01:28:05.368Z,7.45
2019-04-16T01:30:38.416Z,7.31
2019-04-16T01:33:24.783Z,7.03
2019-04-16T01:35:58.174Z,6.85
2019-04-16T01:38:28.707Z,6.68
2019-04-16T01:40:59.114Z,6.64
2019-04-16T01:43:30.896Z,6.60
2019-04-16T01:46:01.274Z,6.67
2019-04-16T01:48:30.240Z,6.65
2019-04-16T01:50:59.098Z,6.59
2019-04-16T01:53:28.364Z,6.58
2019-04-16T01:55:57.738Z,6.57
2019-04-16T01:58:27.582Z,6.53
2019-04-16T02:00:56.343Z,6.44
2019-04-16T02:03:25.245Z,6.40
2019-04-16T02:05:54.865Z,6.34
2019-04-16T02:08:24.532Z,6.32
2019-04-16T02:10:53.216Z,6.29
2019-04-16T02:13:22.028Z,6.20
2019-04-16T02:15:53.540Z,6.17
2019-04-16T02:18:21.372Z,6.09
2019-04-16T02:20:50.160Z,6.06
2019-04-16T02:23:18.907Z,6.13
2019-04-16T02:25:48.456Z,6.10
2019-04-16T02:28:21.363Z,6.02
2019-04-16T02:30:48.704Z,6.12
2019-04-16T02:33:17.461Z,6.09
2019-04-16T02:35:46.327Z,6.05
2019-04-16T02:38:15.284Z,6.03
2019-04-16T02:40:51.325Z,5.96
2019-04-16T02:43:14.716Z,5.92
2019-04-16T02:45:43.471Z,5.90
2019-04-16T02:48:16.688Z,5.91
2019-04-16T02:50:44.320Z,5.81
2019-04-16T02:53:30.871Z,5.82
2019-04-16T02:56:01.457Z,5.75
2019-04-16T02:58:34.308Z,5.71
2019-04-16T03:01:09.741Z,5.63
2019-04-16T03:03:42.783Z,5.68
2019-04-16T03:06:11.554Z,5.63
2019-04-16T03:08:40.363Z,5.62
2019-04-16T03:11:09.111Z,5.51
2019-04-16T03:13:38.001Z,4.88
2019-04-16T03:16:11.164Z,5.46
2019-04-16T03:18:41.511Z,5.41
2019-04-16T03:21:10.354Z,5.46
2019-04-16T03:23:39.101Z,5.42
2019-04-16T03:26:07.930Z,5.45
2019-04-16T03:28:36.709Z,5.36
2019-04-16T03:31:08.877Z,5.36
2019-04-16T03:33:35.996Z,5.27
2019-04-16T03:36:05.426Z,5.28
2019-04-16T03:38:37.452Z,5.00
2019-04-16T03:41:05.552Z,5.19
2019-04-16T03:43:34.206Z,5.18
2019-04-16T03:46:03.043Z,5.18
2019-04-16T03:48:31.807Z,5.23
2019-04-16T03:51:03.687Z,5.23
2019-04-16T03:53:31.091Z,5.25
2019-04-16T03:55:59.819Z,5.16
2019-04-16T03:58:28.607Z,5.14
2019-04-16T04:00:57.524Z,5.12
2019-04-16T04:03:26.955Z,5.04
2019-04-16T04:05:57.809Z,5.01
2019-04-16T04:08:26.649Z,4.98
2019-04-16T04:10:55.592Z,4.96
2019-04-16T04:13:24.324Z,4.97
2019-04-16T04:15:55.248Z,4.93
2019-04-16T04:18:27.076Z,4.83
2019-04-16T04:20:57.032Z,4.81
2019-04-16T04:23:28.715Z,4.83
2019-04-16T04:25:56.325Z,4.76
2019-04-16T04:28:25.111Z,4.75
2019-04-16T04:30:53.869Z,4.77
2019-04-16T04:33:41.902Z,4.75
2019-04-16T04:36:11.299Z,4.70
2019-04-16T04:38:40.318Z,4.71
2019-04-16T04:41:10.148Z,4.74
2019-04-16T04:43:39.111Z,4.71
2019-04-16T04:46:12.560Z,4.64
2019-04-16T04:48:38.530Z,4.64
2019-04-16T04:51:08.744Z,4.66
2019-04-16T04:53:37.843Z,4.70
2019-04-16T04:56:07.395Z,4.74
2019-04-16T04:58:36.280Z,4.70
2019-04-16T05:01:05.317Z,4.76
2019-04-16T05:03:41.587Z,4.53
2019-04-16T05:06:17.635Z,4.78
2019-04-16T05:08:46.496Z,4.98
2019-04-16T05:11:16.568Z,5.25
2019-04-16T05:13:45.782Z,5.64
2019-04-16T05:16:14.522Z,5.97
2019-04-16T05:18:43.339Z,6.42
2019-04-16T05:21:12.133Z,7.19
2019-04-16T05:23:40.860Z,8.19
2019-04-16T05:26:10.019Z,8.80
2019-04-16T05:28:44.472Z,9.32
2019-04-16T05:31:10.652Z,9.61
2019-04-16T05:33:39.423Z,9.80
2019-04-16T05:36:10.973Z,9.77
2019-04-16T05:38:38.694Z,9.84
2019-04-16T05:41:13.547Z,10.14
2019-04-16T05:43:38.122Z,10.69
2019-04-16T05:46:08.836Z,10.00
2019-04-16T05:48:37.607Z,9.64
2019-04-16T05:51:06.363Z,9.66
2019-04-16T05:53:37.393Z,9.81
2019-04-16T05:56:13.990Z,10.08
2019-04-16T05:58:42.840Z,10.04
2019-04-16T06:01:19.312Z,10.11
2019-04-16T06:03:52.761Z,10.21
2019-04-16T06:06:18.586Z,9.57
2019-04-16T06:08:47.389Z,9.44
2019-04-16T06:11:27.458Z,9.86
2019-04-16T06:13:57.094Z,9.91
2019-04-16T06:16:33.493Z,10.15
2019-04-16T06:19:08.534Z,10.52
2019-04-16T06:21:41.417Z,10.09
2019-04-16T06:24:27.793Z,10.13
2019-04-16T06:27:14.051Z,10.17
2019-04-16T06:29:47.243Z,10.85
2019-04-16T06:32:33.955Z,10.30
2019-04-16T06:35:06.985Z,10.50
2019-04-16T06:37:53.726Z,10.86
2019-04-16T06:40:39.285Z,10.34
2019-04-16T06:43:12.823Z,10.60
2019-04-16T06:45:43.242Z,10.40
2019-04-16T06:48:13.959Z,10.41
2019-04-16T06:50:48.170Z,10.16
2019-04-16T06:53:19.545Z,10.38
2019-04-16T06:56:08.750Z,10.70
2019-04-16T06:58:50.727Z,10.78
2019-04-16T07:01:22.071Z,10.74
2019-04-16T07:03:58.221Z,10.44
2019-04-16T07:06:44.229Z,10.68
2019-04-16T07:09:23.492Z,10.74
2019-04-16T07:11:57.998Z,11.17
2019-04-16T07:14:26.755Z,11.33
2019-04-16T07:16:59.789Z,10.94
2019-04-16T07:19:26.066Z,11.30
2019-04-16T07:21:54.852Z,10.75
2019-04-16T07:24:24.010Z,10.87
2019-04-16T07:26:56.627Z,11.00
2019-04-16T07:29:31.585Z,10.99
2019-04-16T07:32:02.418Z,10.90
2019-04-16T07:34:45.070Z,11.29
2019-04-16T07:37:24.502Z,11.26
2019-04-16T07:39:57.750Z,11.66
2019-04-16T07:42:28.190Z,11.28
2019-04-16T07:45:01.277Z,11.96
2019-04-16T07:47:34.279Z,12.38
2019-04-16T07:50:04.814Z,12.08
2019-04-16T07:52:44.085Z,11.88
2019-04-16T07:55:29.394Z,12.22
2019-04-16T07:57:58.132Z,12.67
2019-04-16T08:00:26.901Z,12.70
2019-04-16T08:02:55.791Z,12.70
2019-04-16T08:05:27.648Z,12.61
2019-04-16T08:07:55.033Z,12.83
2019-04-16T08:10:23.901Z,13.02
2019-04-16T08:12:57.239Z,13.63
2019-04-16T08:15:24.843Z,13.74
2019-04-16T08:17:56.023Z,13.86
2019-04-16T08:20:24.762Z,13.79
2019-04-16T08:22:55.076Z,13.30
2019-04-16T08:25:33.601Z,13.38
2019-04-16T08:27:58.695Z,13.06
2019-04-16T08:30:28.329Z,13.05
2019-04-16T08:32:57.335Z,13.43
2019-04-16T08:35:26.638Z,13.24
2019-04-16T08:37:57.909Z,13.09
2019-04-16T08:40:26.104Z,13.51
2019-04-16T08:42:57.330Z,13.80
2019-04-16T08:45:26.225Z,12.67
2019-04-16T08:47:55.179Z,13.16
2019-04-16T08:50:26.144Z,13.47
2019-04-16T08:52:54.613Z,13.76
2019-04-16T08:55:24.185Z,13.93
2019-04-16T08:57:53.363Z,13.90
2019-04-16T09:00:22.191Z,13.93
2019-04-16T09:02:57.793Z,13.82
2019-04-16T09:05:24.264Z,13.85
2019-04-16T09:07:53.163Z,13.85
2019-04-16T09:10:24.124Z,13.80
2019-04-16T09:13:03.067Z,14.00
2019-04-16T09:15:35.594Z,13.70
2019-04-16T09:18:07.042Z,13.46
2019-04-16T09:20:37.763Z,13.74
2019-04-16T09:23:07.933Z,13.90
2019-04-16T09:25:45.917Z,14.52
2019-04-16T09:28:25.266Z,14.53
2019-04-16T09:31:04.681Z,13.98
2019-04-16T09:33:41.153Z,14.32
2019-04-16T09:36:20.240Z,14.57
2019-04-16T09:38:53.871Z,14.57
2019-04-16T09:44:05.892Z,14.98
2019-04-16T09:46:59.488Z,14.73
2019-04-16T09:49:34.454Z,14.71
2019-04-16T09:52:03.907Z,14.69
2019-04-16T09:54:34.385Z,14.52
2019-04-16T09:57:03.380Z,14.64
2019-04-16T09:59:36.459Z,14.63
2019-04-16T10:02:08.869Z,14.59
2019-04-16T10:04:37.869Z,13.99
2019-04-16T10:07:06.770Z,14.38
2019-04-16T10:09:35.932Z,14.34
2019-04-16T10:12:07.906Z,14.48
2019-04-16T10:14:37.489Z,14.69
2019-04-16T10:17:07.777Z,14.85
2019-04-16T10:19:36.770Z,15.32
2019-04-16T10:22:06.099Z,14.99
2019-04-16T10:24:55.584Z,14.93
2019-04-16T10:27:41.940Z,14.84
2019-04-16T10:30:12.944Z,15.15
2019-04-16T10:32:52.250Z,15.36
2019-04-16T10:35:22.238Z,15.02
2019-04-16T10:37:51.072Z,15.03
2019-04-16T10:40:42.009Z,14.75
2019-04-16T10:43:43.898Z,15.00
2019-04-16T10:46:09.792Z,15.36
2019-04-16T10:48:44.113Z,15.13
2019-04-16T10:51:25.981Z,15.01
2019-04-16T10:53:57.263Z,15.56
2019-04-16T10:56:29.168Z,15.65
2019-04-16T10:59:14.974Z,15.23
2019-04-16T11:01:54.172Z,15.57
2019-04-16T11:04:24.531Z,15.19
2019-04-16T11:06:57.825Z,15.41
2019-04-16T11:09:26.717Z,15.96
2019-04-16T11:11:55.546Z,15.96
2019-04-16T11:14:24.458Z,15.91
2019-04-16T11:16:53.502Z,16.12
2019-04-16T11:19:22.348Z,16.16
2019-04-16T11:21:51.153Z,16.31
2019-04-16T11:24:20.645Z,16.42
2019-04-16T11:26:49.816Z,16.14
2019-04-16T11:29:18.595Z,16.45
2019-04-16T11:31:47.352Z,16.47
2019-04-16T11:34:16.178Z,16.82
2019-04-16T11:36:45.032Z,16.72
2019-04-16T11:39:13.896Z,16.56
2019-04-16T11:41:42.658Z,16.62
2019-04-16T11:44:16.186Z,16.69
2019-04-16T11:46:41.920Z,16.78
2019-04-16T11:49:10.802Z,16.93
2019-04-16T11:51:39.640Z,16.48
2019-04-16T11:54:11.481Z,16.52
2019-04-16T11:56:39.084Z,16.06
2019-04-16T11:59:07.877Z,16.15
2019-04-16T12:01:50.563Z,16.37
2019-04-16T12:04:23.771Z,16.37
2019-04-16T12:07:05.576Z,16.64
2019-04-16T12:09:51.694Z,16.54
2019-04-16T12:12:22.171Z,16.48
2019-04-16T12:15:08.677Z,16.56
2019-04-16T12:17:53.994Z,16.60
2019-04-16T12:20:24.560Z,16.97
2019-04-16T12:23:10.927Z,16.73
2019-04-16T12:25:53.349Z,16.76
2019-04-16T12:28:43.214Z,16.72
2019-04-16T12:31:16.076Z,17.30
2019-04-16T12:33:44.485Z,17.14
2019-04-16T12:36:21.098Z,17.15
2019-04-16T12:38:51.445Z,17.26
2019-04-16T12:41:21.767Z,17.33
2019-04-16T12:44:00.924Z,17.25
2019-04-16T12:46:37.031Z,17.13
2019-04-16T12:49:23.738Z,17.22
2019-04-16T12:51:57.062Z,17.27
2019-04-16T12:54:27.506Z,16.27
2019-04-16T12:57:16.655Z,17.06
2019-04-16T12:59:54.720Z,17.32
2019-04-16T13:02:22.319Z,17.79
2019-04-16T13:04:55.434Z,18.00
2019-04-16T13:07:25.857Z,17.81
2019-04-16T13:09:56.298Z,18.21
2019-04-16T13:12:39.345Z,18.29
2019-04-16T13:15:12.364Z,18.40
2019-04-16T13:17:58.681Z,18.21
2019-04-16T13:20:45.637Z,18.24
2019-04-16T13:23:36.634Z,18.94
2019-04-16T13:26:20.766Z,18.64
2019-04-16T13:28:49.942Z,18.49
2019-04-16T13:31:22.900Z,18.60
2019-04-16T13:33:56.034Z,18.50
2019-04-16T13:36:28.114Z,18.47
2019-04-16T13:39:09.319Z,18.80
2019-04-16T13:41:43.091Z,19.10
2019-04-16T13:44:16.968Z,19.08
2019-04-16T13:46:44.856Z,19.09
2019-04-16T13:49:15.718Z,19.37
2019-04-16T13:51:47.777Z,19.33
2019-04-16T13:54:28.427Z,19.17
2019-04-16T13:57:00.251Z,18.83
2019-04-16T13:59:48.164Z,19.26
2019-04-16T14:02:19.499Z,18.44
2019-04-16T14:04:48.354Z,18.17
2019-04-16T14:07:17.160Z,18.35
2019-04-16T14:09:46.001Z,18.64
2019-04-16T14:12:15.606Z,18.69
2019-04-16T14:14:46.725Z,18.57
2019-04-16T14:17:17.998Z,18.58
2019-04-16T14:19:47.525Z,18.26
2019-04-16T14:22:21.911Z,18.52
2019-04-16T14:24:52.335Z,18.51
2019-04-16T14:27:22.495Z,18.61
2019-04-16T14:29:51.370Z,18.44
2019-04-16T14:32:21.803Z,18.25
2019-04-16T14:34:55.020Z,18.22
2019-04-16T14:37:23.784Z,18.25
2019-04-16T14:40:06.430Z,18.24
2019-04-16T14:42:35.311Z,18.24
2019-04-16T14:45:10.407Z,17.99
2019-04-16T14:47:39.167Z,17.84
2019-04-16T14:50:08.052Z,17.95
2019-04-16T14:52:36.951Z,18.03
2019-04-16T14:55:08.281Z,18.08
2019-04-16T14:57:39.774Z,17.99
2019-04-16T15:00:19.016Z,18.03
2019-04-16T15:03:01.930Z,18.09
2019-04-16T15:05:36.712Z,18.15
2019-04-16T15:08:10.020Z,18.34
2019-04-16T15:10:40.379Z,18.19
2019-04-16T15:13:11.052Z,18.34
2019-04-16T15:15:45.462Z,18.00
2019-04-16T15:18:22.587Z,18.06
2019-04-16T15:20:55.939Z,18.23
2019-04-16T15:23:26.332Z,18.34
2019-04-16T15:26:02.426Z,18.34
2019-04-16T15:28:44.646Z,18.34
2019-04-16T15:31:24.167Z,18.35
2019-04-16T15:33:54.532Z,18.51
2019-04-16T15:36:24.850Z,18.28
2019-04-16T15:38:59.061Z,18.25
2019-04-16T15:41:46.510Z,18.17
2019-04-16T15:44:32.432Z,18.18
2019-04-16T15:47:06.109Z,18.08
2019-04-16T15:49:42.205Z,17.88
2019-04-16T15:52:27.700Z,17.87
2019-04-16T15:54:58.126Z,17.73
2019-04-16T15:57:44.941Z,17.75
2019-04-16T16:00:27.529Z,17.84
2019-04-16T16:03:14.213Z,17.90
2019-04-16T16:05:44.624Z,17.73
2019-04-16T16:08:14.953Z,17.66
2019-04-16T16:10:54.195Z,17.54
2019-04-16T16:13:26.483Z,17.49
2019-04-16T16:15:53.519Z,17.47
2019-04-16T16:18:22.279Z,17.37
2019-04-16T16:20:51.033Z,17.33
2019-04-16T16:23:19.818Z,17.25
2019-04-16T16:25:48.574Z,17.30
2019-04-16T16:28:17.384Z,17.31
2019-04-16T16:30:46.373Z,17.42
2019-04-16T16:33:15.122Z,17.47
2019-04-16T16:35:56.813Z,17.46
2019-04-16T16:38:14.968Z,17.35
2019-04-16T16:40:49.455Z,17.16
2019-04-16T16:43:14.829Z,17.19
2019-04-16T16:45:47.962Z,17.15
2019-04-16T16:48:16.872Z,17.11
2019-04-16T16:50:45.773Z,17.04
2019-04-16T16:53:16.098Z,17.08
2019-04-16T16:55:46.698Z,16.92
2019-04-16T16:58:29.089Z,16.28
2019-04-16T17:01:13.891Z,16.64
2019-04-16T17:03:52.988Z,16.63
2019-04-16T17:06:24.010Z,16.59
2019-04-16T17:08:52.799Z,16.52
2019-04-16T17:11:21.581Z,16.54
2019-04-16T17:13:50.321Z,16.46
2019-04-16T17:16:19.132Z,16.38
2019-04-16T17:18:47.877Z,16.46
2019-04-16T17:21:16.615Z,16.37
2019-04-16T17:23:45.411Z,16.29
2019-04-16T17:26:16.162Z,16.37
2019-04-16T17:28:44.753Z,16.34
2019-04-16T17:31:14.206Z,16.32
2019-04-16T17:33:43.870Z,16.30
2019-04-16T17:36:12.630Z,16.27
2019-04-16T17:38:41.531Z,16.22
2019-04-16T17:41:18.088Z,16.20
2019-04-16T17:44:02.231Z,16.12
2019-04-16T17:46:35.421Z,16.07
2019-04-16T17:49:08.528Z,15.89
2019-04-16T17:51:44.677Z,15.93
2019-04-16T17:54:27.139Z,15.84
2019-04-16T17:57:14.357Z,15.76
2019-04-16T17:59:47.457Z,15.71
2019-04-16T18:02:32.984Z,15.61
2019-04-16T18:05:12.272Z,15.59
2019-04-16T18:07:48.701Z,15.50
2019-04-16T18:10:26.830Z,15.43
2019-04-16T18:13:00.479Z,15.41
2019-04-16T18:15:33.569Z,15.33
2019-04-16T18:18:03.895Z,15.19
2019-04-16T18:20:57.133Z,15.18
2019-04-16T18:23:22.659Z,15.13
2019-04-16T18:25:57.467Z,15.11
2019-04-16T18:28:27.924Z,15.10
2019-04-16T18:30:58.248Z,15.04
2019-04-16T18:33:34.157Z,14.98
2019-04-16T18:36:07.448Z,14.99
2019-04-16T18:38:39.116Z,14.92
2019-04-16T18:41:27.864Z,14.92
2019-04-16T18:44:12.383Z,14.83
2019-04-16T18:46:46.892Z,14.52
2019-04-16T18:49:18.144Z,14.64
2019-04-16T18:51:59.981Z,14.56
2019-04-16T18:54:29.319Z,14.42
2019-04-16T18:56:58.609Z,14.41
2019-04-16T18:59:33.156Z,14.36
2019-04-16T19:02:03.828Z,14.30
2019-04-16T19:04:34.986Z,14.16
2019-04-16T19:07:04.265Z,14.11
2019-04-16T19:09:33.071Z,14.08
2019-04-16T19:12:02.451Z,14.08
2019-04-16T19:14:31.526Z,13.98
2019-04-16T19:17:00.608Z,13.98
2019-04-16T19:19:29.773Z,13.98
2019-04-16T19:21:59.337Z,14.01
2019-04-16T19:24:28.089Z,13.89
2019-04-16T19:26:56.863Z,13.89
2019-04-16T19:29:25.882Z,13.77
2019-04-16T19:31:56.891Z,13.78
2019-04-16T19:34:25.386Z,13.74
2019-04-16T19:36:56.258Z,13.62
2019-04-16T19:39:24.940Z,13.61
2019-04-16T19:41:57.632Z,13.56
2019-04-16T19:44:26.407Z,13.57
2019-04-16T19:46:56.805Z,13.50
2019-04-16T19:49:25.716Z,13.45
2019-04-16T19:51:54.650Z,13.43
2019-04-16T19:54:23.598Z,13.37
2019-04-16T19:56:53.226Z,13.30
2019-04-16T19:59:21.969Z,13.36
2019-04-16T20:01:51.018Z,13.37
2019-04-16T20:04:19.841Z,13.36
2019-04-16T20:06:51.221Z,13.29
2019-04-16T20:09:20.245Z,13.22
2019-04-16T20:11:49.224Z,13.22
2019-04-16T20:14:18.930Z,13.10
2019-04-16T20:16:52.456Z,13.11
2019-04-16T20:19:25.447Z,12.95
2019-04-16T20:21:54.931Z,12.93
2019-04-16T20:24:23.922Z,12.96
2019-04-16T20:26:53.260Z,12.91
2019-04-16T20:29:22.197Z,12.82
2019-04-16T20:31:51.499Z,12.98
2019-04-16T20:34:20.710Z,12.95
2019-04-16T20:36:52.228Z,12.84
2019-04-16T20:39:20.781Z,12.83
2019-04-16T20:41:52.729Z,12.78
2019-04-16T20:44:25.616Z,12.67
2019-04-16T20:46:54.469Z,12.70
2019-04-16T20:49:23.225Z,12.64
2019-04-16T20:51:51.978Z,12.67
2019-04-16T20:54:20.732Z,12.63
2019-04-16T20:56:50.054Z,12.59
2019-04-16T20:59:20.321Z,12.55
2019-04-16T21:01:49.320Z,12.46
2019-04-16T21:04:18.287Z,12.37
2019-04-16T21:06:47.307Z,12.43
2019-04-16T21:09:30.979Z,12.37
2019-04-16T21:12:00.452Z,12.34
2019-04-16T21:14:29.312Z,12.26
2019-04-16T21:16:58.071Z,12.26
2019-04-16T21:19:28.439Z,12.21
2019-04-16T21:22:01.038Z,12.20
2019-04-16T21:24:27.713Z,12.19
2019-04-16T21:26:56.582Z,12.33
2019-04-16T21:29:26.967Z,12.29
2019-04-16T21:31:58.080Z,12.28
2019-04-16T21:34:31.214Z,12.27
2019-04-16T21:37:17.184Z,12.31
2019-04-16T21:39:51.169Z,12.31
2019-04-16T21:42:17.995Z,12.15
2019-04-16T21:44:47.552Z,12.06
2019-04-16T21:47:16.299Z,11.94
2019-04-16T21:49:45.888Z,11.87
2019-04-16T21:52:15.488Z,11.96
2019-04-16T21:54:44.242Z,11.91
2019-04-16T21:57:14.258Z,11.72
2019-04-16T21:59:43.172Z,11.69
2019-04-16T22:02:13.913Z,11.67
2019-04-16T22:04:46.658Z,11.64
2019-04-16T22:07:15.574Z,11.64
2019-04-16T22:09:45.087Z,11.61
2019-04-16T22:12:15.460Z,11.56
2019-04-16T22:14:51.090Z,11.52
2019-04-16T22:17:18.751Z,11.48
2019-04-16T22:19:54.248Z,11.43
2019-04-16T22:22:18.678Z,11.26
2019-04-16T22:24:47.586Z,11.18
2019-04-16T22:27:18.064Z,11.17
2019-04-16T22:29:48.299Z,11.07
2019-04-16T22:32:17.937Z,11.10
2019-04-16T22:34:46.910Z,10.97
2019-04-16T22:37:15.654Z,10.79
2019-04-16T22:39:50.831Z,10.61
2019-04-16T22:42:29.598Z,10.52
2019-04-16T22:45:15.485Z,10.39
2019-04-16T22:47:45.806Z,10.30
2019-04-16T22:50:17.162Z,10.21
2019-04-16T22:52:46.157Z,10.12
2019-04-16T22:55:15.016Z,10.03
2019-04-16T22:57:43.757Z,9.89
2019-04-16T23:00:17.150Z,9.76
2019-04-16T23:02:48.281Z,9.66
2019-04-16T23:05:17.358Z,9.59
2019-04-16T23:07:46.205Z,9.48
2019-04-16T23:10:17.745Z,9.39
2019-04-16T23:12:45.453Z,9.28
2019-04-16T23:15:14.548Z,9.14
2019-04-16T23:17:46.153Z,9.09
2019-04-16T23:20:28.235Z,8.97
2019-04-16T23:22:46.488Z,8.79
2019-04-16T23:25:14.777Z,8.65
2019-04-16T23:27:43.536Z,8.59
2019-04-16T23:30:12.397Z,8.54
2019-04-16T23:32:41.213Z,8.53
2019-04-16T23:35:11.589Z,8.48
2019-04-16T23:37:40.412Z,8.46
2019-04-16T23:40:10.813Z,8.44
2019-04-16T23:42:41.448Z,8.38
2019-04-16T23:45:18.073Z,8.29
2019-04-16T23:48:04.814Z,8.26
2019-04-16T23:50:45.149Z,8.23
2019-04-16T23:53:27.796Z,8.13
2019-04-16T23:56:10.529Z,8.00
2019-04-16T23:58:50.671Z,7.89
